Island Venture — WDG3765 — position and weather

sailwx.info

Track history (hours):
 
Tides and Currents Weather Stations Pressure Air Temp Water Temp Dewpoint Dewpoint Depression Visibility Wind Speed Wind Dir Waves Ship Positions

Island Venture

Owner: Island Tug and Barge, Seattle, WA. More information available from US FCC via Universal Licensing System and Coast Guard Vessel Documentation Center.

Last reported at 2016-Jun-25 02:07 UTC. Time now 2016-Jun-26 06:35 UTC.
Position N 47°34' W 122°21'.

Type: Tug. MMSI: 367529420.

Date/timePositionNaut miles runAvg speedWind from/ knotsBaromVisibWave heightAir tempDewpointWater temp
2016-Jun-25 02:07N 47°34' W 122°21'0 0.0
2016-Jun-25 01:33N 47°34' W 122°21'0 0.0
2016-Jun-25 00:33N 47°34' W 122°21'8 8.2
2016-Jun-24 23:33N 47°41' W 122°28'1010.2
2016-Jun-24 22:33N 47°51' W 122°29'10 9.7
2016-Jun-24 21:33N 47°59' W 122°37'22 7.5
2016-Jun-24 18:33N 48°21' W 122°46'1111.3
2016-Jun-24 17:33N 48°32' W 122°42'1110.5
2016-Jun-24 16:33N 48°41' W 122°34'3 2.8
2016-Jun-24 15:33N 48°44' W 122°34'3 2.9
2016-Jun-24 14:28N 48°45' W 122°29'0 0.1
2016-Jun-24 13:32N 48°45' W 122°29'4 1.0
2016-Jun-24 09:33N 48°41' W 122°33'9 9.2
2016-Jun-24 08:33N 48°33' W 122°40'8 8.2
2016-Jun-24 07:33N 48°26' W 122°44'29 9.7
2016-Jun-24 04:33N 47°58' W 122°33'1010.5
2016-Jun-24 03:33N 47°48' W 122°26'1110.5
2016-Jun-24 02:33N 47°38' W 122°26'5 4.6
2016-Jun-24 01:33N 47°34' W 122°21'2 2.0
2016-Jun-24 00:33N 47°32' W 122°20'0 0.0
2016-Jun-23 23:33N 47°32' W 122°20'0 0.0
2016-Jun-23 22:33N 47°32' W 122°20'1 0.9
2016-Jun-23 21:33N 47°33' W 122°21'1 1.2
2016-Jun-23 20:33N 47°34' W 122°21'1 0.6
2016-Jun-23 19:33N 47°34' W 122°21'0 0.1
2016-Jun-23 18:33N 47°34' W 122°21'0 0.1
2016-Jun-23 17:33N 47°34' W 122°21'1 0.6
2016-Jun-23 16:33N 47°34' W 122°21'0 0.0
2016-Jun-23 15:33N 47°34' W 122°21'0 0.0
2016-Jun-23 14:33N 47°34' W 122°21'0 0.2
2016-Jun-23 13:33N 47°34' W 122°21'1 0.5
2016-Jun-23 12:33N 47°34' W 122°21'0 0.0
2016-Jun-23 11:33N 47°34' W 122°21'0 0.0
2016-Jun-23 10:33N 47°34' W 122°21'0 0.0
2016-Jun-23 09:33N 47°34' W 122°21'1 1.1
2016-Jun-23 08:33N 47°35' W 122°22'5 5.4
2016-Jun-23 07:33N 47°32' W 122°28'14 6.9
2016-Jun-23 05:33N 47°18' W 122°27'3 0.2
2016-Jun-22 13:14N 47°16' W 122°23'4 5.2
2016-Jun-22 12:33N 47°19' W 122°26'7 6.9
2016-Jun-22 11:33N 47°26' W 122°24'8 8.5
2016-Jun-22 10:33N 47°35' W 122°26'3 3.3
2016-Jun-22 09:33N 47°34' W 122°21'1 0.5
2016-Jun-22 08:33N 47°34' W 122°21'0 0.1
2016-Jun-22 07:33N 47°34' W 122°21'  
2016-Jun-18 15:26N 47°34' W 122°21'0 0.0
2016-Jun-18 14:33N 47°34' W 122°21'2 1.5
2016-Jun-18 13:33N 47°36' W 122°22'3 3.5
2016-Jun-18 12:34N 47°38' W 122°27'6 6.2
2016-Jun-18 11:33N 47°44' W 122°28'6 6.4
2016-Jun-18 10:34N 47°50' W 122°29'7 6.6
2016-Jun-18 09:34N 47°56' W 122°32'7 6.7
2016-Jun-18 08:34N 48°02' W 122°38'7 6.8
2016-Jun-18 07:32N 48°08' W 122°43'13 6.6
2016-Jun-18 05:30N 48°21' W 122°46'6 6.8
2016-Jun-18 04:33N 48°27' W 122°44'7 7.2
2016-Jun-18 03:33N 48°34' W 122°45'7 6.9
2016-Jun-18 02:33N 48°41' W 122°44'6 5.7
2016-Jun-18 01:32N 48°46' W 122°50'5 4.7
2016-Jun-18 00:32N 48°49' W 122°56'3 3.3
2016-Jun-17 23:33N 48°50' W 122°60'3 3.4
2016-Jun-17 22:33N 48°52' W 123°04'4 4.3
2016-Jun-17 21:33N 48°55' W 123°09'4 4.1
2016-Jun-17 20:34N 48°58' W 123°14'4 3.9
2016-Jun-17 19:33N 49°00' W 123°19'4 4.4
2016-Jun-17 18:33N 49°03' W 123°24'4 3.6
2016-Jun-17 17:34N 49°06' W 123°27'4 4.3
2016-Jun-17 16:34N 49°09' W 123°32'5 4.9
2016-Jun-17 15:34N 49°12' W 123°38'5 4.6
2016-Jun-17 14:34N 49°15' W 123°43'5 4.7
2016-Jun-17 13:33N 49°18' W 123°49'5 5.1
2016-Jun-17 12:34N 49°21' W 123°55'5 5.0
2016-Jun-17 11:33N 49°24' W 124°00'5 4.7
2016-Jun-17 10:33N 49°27' W 124°06'5 4.6
2016-Jun-17 09:33N 49°30' W 124°11'4 4.0
2016-Jun-17 08:33N 49°32' W 124°17'5 4.7
2016-Jun-17 07:33N 49°34' W 124°23'7 6.6
2016-Jun-17 06:33N 49°38' W 124°31'4 3.9
2016-Jun-17 05:33N 49°42' W 124°33'0 0.0
2016-Jun-17 04:33N 49°42' W 124°33'0 0.0
2016-Jun-17 03:33N 49°42' W 124°33'0 0.0
2016-Jun-17 02:33N 49°42' W 124°33'0 0.2
2016-Jun-17 01:33N 49°42' W 124°33'0 0.0
2016-Jun-17 00:33N 49°42' W 124°33'0 0.0
2016-Jun-16 23:33N 49°42' W 124°33'0 0.0
2016-Jun-16 22:33N 49°42' W 124°33'0 0.0
2016-Jun-16 21:33N 49°42' W 124°33'0 0.0
2016-Jun-16 20:34N 49°42' W 124°33'0 0.0
2016-Jun-16 19:33N 49°42' W 124°33'0 0.1
2016-Jun-16 14:34N 49°42' W 124°33'3 3.1
2016-Jun-16 13:33N 49°39' W 124°32'4 3.6
2016-Jun-16 12:31N 49°37' W 124°27'8 8.2
2016-Jun-16 11:34N 49°32' W 124°17'8 8.2
2016-Jun-16 10:33N 49°28' W 124°07'8 8.2
2016-Jun-16 09:33N 49°23' W 123°57'8 8.1
2016-Jun-16 08:33N 49°18' W 123°47'8 8.0
2016-Jun-16 07:34N 49°13' W 123°37'8 8.3
2016-Jun-16 06:34N 49°08' W 123°27'9 8.6
2016-Jun-16 05:34N 49°02' W 123°18'9 8.5
2016-Jun-16 04:33N 48°56' W 123°08'9 8.6
2016-Jun-16 03:33N 48°51' W 122°58'8 8.0
2016-Jun-16 02:33N 48°46' W 122°48'7 7.2
2016-Jun-16 01:33N 48°40' W 122°43'7 7.1
2016-Jun-16 00:33N 48°33' W 122°45'8 8.4
2016-Jun-15 23:33N 48°25' W 122°44'8 7.9
2016-Jun-15 22:30N 48°16' W 122°47'18 6.1
2016-Jun-15 19:30N 47°60' W 122°36'7 6.9
2016-Jun-15 18:33N 47°55' W 122°29'8 8.5
2016-Jun-15 17:33N 47°47' W 122°26'9 8.7
2016-Jun-15 16:34N 47°38' W 122°27'5 4.8
2016-Jun-15 15:34N 47°34' W 122°27'7 7.3
2016-Jun-15 14:34N 47°27' W 122°31'7 7.2
2016-Jun-15 13:33N 47°20' W 122°33'8 7.9
2016-Jun-15 12:31N 47°12' W 122°36'  
Track history (hours):
 
Tides and Currents Weather Stations Pressure Air Temp Water Temp Dewpoint Dewpoint Depression Visibility Wind Speed Wind Dir Waves Ship Positions

Island Venture

Owner: Island Tug and Barge, Seattle, WA. More information available from US FCC via Universal Licensing System and Coast Guard Vessel Documentation Center.

Last reported at 2016-Jun-25 02:07 UTC. Time now 2016-Jun-26 06:35 UTC.
Position N 47°34' W 122°21'.

Type: Tug. MMSI: 367529420.

Date/timePositionNaut miles runAvg speedWind from/ knotsBaromVisibWave heightAir tempDewpointWater temp
2016-Jun-25 02:07N 47°34' W 122°21'0 0.0
2016-Jun-25 01:33N 47°34' W 122°21'0 0.0
2016-Jun-25 00:33N 47°34' W 122°21'8 8.2
2016-Jun-24 23:33N 47°41' W 122°28'1010.2
2016-Jun-24 22:33N 47°51' W 122°29'10 9.7
2016-Jun-24 21:33N 47°59' W 122°37'22 7.5
2016-Jun-24 18:33N 48°21' W 122°46'1111.3
2016-Jun-24 17:33N 48°32' W 122°42'1110.5
2016-Jun-24 16:33N 48°41' W 122°34'3 2.8
2016-Jun-24 15:33N 48°44' W 122°34'3 2.9
2016-Jun-24 14:28N 48°45' W 122°29'0 0.1
2016-Jun-24 13:32N 48°45' W 122°29'4 1.0
2016-Jun-24 09:33N 48°41' W 122°33'9 9.2
2016-Jun-24 08:33N 48°33' W 122°40'8 8.2
2016-Jun-24 07:33N 48°26' W 122°44'29 9.7
2016-Jun-24 04:33N 47°58' W 122°33'1010.5
2016-Jun-24 03:33N 47°48' W 122°26'1110.5
2016-Jun-24 02:33N 47°38' W 122°26'5 4.6
2016-Jun-24 01:33N 47°34' W 122°21'2 2.0
2016-Jun-24 00:33N 47°32' W 122°20'0 0.0
2016-Jun-23 23:33N 47°32' W 122°20'0 0.0
2016-Jun-23 22:33N 47°32' W 122°20'1 0.9
2016-Jun-23 21:33N 47°33' W 122°21'1 1.2
2016-Jun-23 20:33N 47°34' W 122°21'1 0.6
2016-Jun-23 19:33N 47°34' W 122°21'0 0.1
2016-Jun-23 18:33N 47°34' W 122°21'0 0.1
2016-Jun-23 17:33N 47°34' W 122°21'1 0.6
2016-Jun-23 16:33N 47°34' W 122°21'0 0.0
2016-Jun-23 15:33N 47°34' W 122°21'0 0.0
2016-Jun-23 14:33N 47°34' W 122°21'0 0.2
2016-Jun-23 13:33N 47°34' W 122°21'1 0.5
2016-Jun-23 12:33N 47°34' W 122°21'0 0.0
2016-Jun-23 11:33N 47°34' W 122°21'0 0.0
2016-Jun-23 10:33N 47°34' W 122°21'0 0.0
2016-Jun-23 09:33N 47°34' W 122°21'1 1.1
2016-Jun-23 08:33N 47°35' W 122°22'5 5.4
2016-Jun-23 07:33N 47°32' W 122°28'14 6.9
2016-Jun-23 05:33N 47°18' W 122°27'3 0.2
2016-Jun-22 13:14N 47°16' W 122°23'4 5.2
2016-Jun-22 12:33N 47°19' W 122°26'7 6.9
2016-Jun-22 11:33N 47°26' W 122°24'8 8.5
2016-Jun-22 10:33N 47°35' W 122°26'3 3.3
2016-Jun-22 09:33N 47°34' W 122°21'1 0.5
2016-Jun-22 08:33N 47°34' W 122°21'0 0.1
2016-Jun-22 07:33N 47°34' W 122°21'  
2016-Jun-18 15:26N 47°34' W 122°21'0 0.0
2016-Jun-18 14:33N 47°34' W 122°21'2 1.5
2016-Jun-18 13:33N 47°36' W 122°22'3 3.5
2016-Jun-18 12:34N 47°38' W 122°27'6 6.2
2016-Jun-18 11:33N 47°44' W 122°28'6 6.4
2016-Jun-18 10:34N 47°50' W 122°29'7 6.6
2016-Jun-18 09:34N 47°56' W 122°32'7 6.7
2016-Jun-18 08:34N 48°02' W 122°38'7 6.8
2016-Jun-18 07:32N 48°08' W 122°43'13 6.6
2016-Jun-18 05:30N 48°21' W 122°46'6 6.8
2016-Jun-18 04:33N 48°27' W 122°44'7 7.2
2016-Jun-18 03:33N 48°34' W 122°45'7 6.9
2016-Jun-18 02:33N 48°41' W 122°44'6 5.7
2016-Jun-18 01:32N 48°46' W 122°50'5 4.7
2016-Jun-18 00:32N 48°49' W 122°56'3 3.3
2016-Jun-17 23:33N 48°50' W 122°60'3 3.4
2016-Jun-17 22:33N 48°52' W 123°04'4 4.3
2016-Jun-17 21:33N 48°55' W 123°09'4 4.1
2016-Jun-17 20:34N 48°58' W 123°14'4 3.9
2016-Jun-17 19:33N 49°00' W 123°19'4 4.4
2016-Jun-17 18:33N 49°03' W 123°24'4 3.6
2016-Jun-17 17:34N 49°06' W 123°27'4 4.3
2016-Jun-17 16:34N 49°09' W 123°32'5 4.9
2016-Jun-17 15:34N 49°12' W 123°38'5 4.6
2016-Jun-17 14:34N 49°15' W 123°43'5 4.7
2016-Jun-17 13:33N 49°18' W 123°49'5 5.1
2016-Jun-17 12:34N 49°21' W 123°55'5 5.0
2016-Jun-17 11:33N 49°24' W 124°00'5 4.7
2016-Jun-17 10:33N 49°27' W 124°06'5 4.6
2016-Jun-17 09:33N 49°30' W 124°11'4 4.0
2016-Jun-17 08:33N 49°32' W 124°17'5 4.7
2016-Jun-17 07:33N 49°34' W 124°23'7 6.6
2016-Jun-17 06:33N 49°38' W 124°31'4 3.9
2016-Jun-17 05:33N 49°42' W 124°33'0 0.0
2016-Jun-17 04:33N 49°42' W 124°33'0 0.0
2016-Jun-17 03:33N 49°42' W 124°33'0 0.0
2016-Jun-17 02:33N 49°42' W 124°33'0 0.2
2016-Jun-17 01:33N 49°42' W 124°33'0 0.0
2016-Jun-17 00:33N 49°42' W 124°33'0 0.0
2016-Jun-16 23:33N 49°42' W 124°33'0 0.0
2016-Jun-16 22:33N 49°42' W 124°33'0 0.0
2016-Jun-16 21:33N 49°42' W 124°33'0 0.0
2016-Jun-16 20:34N 49°42' W 124°33'0 0.0
2016-Jun-16 19:33N 49°42' W 124°33'0 0.1
2016-Jun-16 14:34N 49°42' W 124°33'3 3.1
2016-Jun-16 13:33N 49°39' W 124°32'4 3.6
2016-Jun-16 12:31N 49°37' W 124°27'8 8.2
2016-Jun-16 11:34N 49°32' W 124°17'8 8.2
2016-Jun-16 10:33N 49°28' W 124°07'8 8.2
2016-Jun-16 09:33N 49°23' W 123°57'8 8.1
2016-Jun-16 08:33N 49°18' W 123°47'8 8.0
2016-Jun-16 07:34N 49°13' W 123°37'8 8.3
2016-Jun-16 06:34N 49°08' W 123°27'9 8.6
2016-Jun-16 05:34N 49°02' W 123°18'9 8.5
2016-Jun-16 04:33N 48°56' W 123°08'9 8.6
2016-Jun-16 03:33N 48°51' W 122°58'8 8.0
2016-Jun-16 02:33N 48°46' W 122°48'7 7.2
2016-Jun-16 01:33N 48°40' W 122°43'7 7.1
2016-Jun-16 00:33N 48°33' W 122°45'8 8.4
2016-Jun-15 23:33N 48°25' W 122°44'8 7.9
2016-Jun-15 22:30N 48°16' W 122°47'18 6.1
2016-Jun-15 19:30N 47°60' W 122°36'7 6.9
2016-Jun-15 18:33N 47°55' W 122°29'8 8.5
2016-Jun-15 17:33N 47°47' W 122°26'9 8.7
2016-Jun-15 16:34N 47°38' W 122°27'5 4.8
2016-Jun-15 15:34N 47°34' W 122°27'7 7.3
2016-Jun-15 14:34N 47°27' W 122°31'7 7.2
2016-Jun-15 13:33N 47°20' W 122°33'8 7.9
2016-Jun-15 12:31N 47°12' W 122°36'  

Dump ship's entire track history